Fairview, Pennsylvania
Current Conditions -  °F | °C
As of 9:27 AM on Sunday 23 Nov 2014 (Local Time) from KERI Reporting Station
Overcast Overcast  
Wind Chill: 41°   Ceiling: 3100
Heat Index: 46°   Visibility: 10mi
Dew Point: 39°   Wind: 12mph
Humidity: 76%   Direction: 170°S
Pressure: 30.04"   Gusts: NA
Location:  42.03°N, 80.25°W
Report Text: KERI 231427Z 17010KT 10SM SCT026 OVC031 08/04 A3004 RMK AO2 CIG 025 NE T00780039
Loading
Personal Weather Stations






























Interactive Weather Map New forecast layout! Learn more

10-Day Weather Forecast

Advertisements
Track Severe Weather on mobile